Sumisemaru No.5 — JE3162 — position and weather

sailwx.info

Track history (hours):
 
Tides and Currents Weather Stations Pressure Air Temp Water Temp Dewpoint Dewpoint Depression Visibility Wind Speed Wind Dir Waves Ship Positions

Sumisemaru No.5

Last reported at 2015-Jan-30 15:32 UTC. Time now 2015-Feb-01 13:14 UTC.
Position N 34°33' E 134°46'.

Length 96 m; draft 6 m.

Type: Cargo ship. MMSI: 431700423.

Date/timePositionNaut miles runAvg speedWind from/ knotsBaromVisibWave heightAir tempDewpointWater temp
2015-Jan-30 15:32N 34°33' E 134°46'1010.7
2015-Jan-30 14:33N 34°37' E 134°58'1010.0
2015-Jan-30 13:33N 34°36' E 135°10'1212.2
2015-Jan-30 12:33N 34°39' E 135°24'3 2.4
2015-Jan-30 11:25N 34°40' E 135°27'0 0.0
2015-Jan-30 10:30N 34°40' E 135°27'0 0.0
2015-Jan-30 09:24N 34°40' E 135°27'0 0.0
2015-Jan-30 08:30N 34°40' E 135°27'0 0.0
2015-Jan-30 07:30N 34°40' E 135°27'0 0.0
2015-Jan-30 06:30N 34°40' E 135°27'0 0.0
2015-Jan-30 05:24N 34°40' E 135°27'0 0.0
2015-Jan-30 04:24N 34°40' E 135°27'0 0.0
2015-Jan-30 03:30N 34°40' E 135°27'0 0.0
2015-Jan-30 02:32N 34°40' E 135°27'0 0.0
2015-Jan-30 01:29N 34°40' E 135°27'0 0.0
2015-Jan-30 00:29N 34°40' E 135°27'0 0.0
2015-Jan-29 23:29N 34°40' E 135°27'2 1.9
2015-Jan-29 22:33N 34°39' E 135°25'6 5.6
2015-Jan-29 21:32N 34°37' E 135°19'0 0.0
2015-Jan-29 20:32N 34°36' E 135°19'0 0.0
2015-Jan-29 19:32N 34°36' E 135°19'0 0.0
2015-Jan-29 18:32N 34°37' E 135°19'0 0.0
2015-Jan-29 17:32N 34°37' E 135°19'0 0.0
2015-Jan-29 16:32N 34°37' E 135°19'0 0.0
2015-Jan-29 15:26N 34°37' E 135°19'0 0.0
2015-Jan-29 14:32N 34°37' E 135°19'7 6.8
2015-Jan-29 13:33N 34°35' E 135°11'1312.9
2015-Jan-29 12:33N 34°37' E 134°56'  
Track history (hours):
 
Tides and Currents Weather Stations Pressure Air Temp Water Temp Dewpoint Dewpoint Depression Visibility Wind Speed Wind Dir Waves Ship Positions

Sumisemaru No.5

Last reported at 2015-Jan-30 15:32 UTC. Time now 2015-Feb-01 13:14 UTC.
Position N 34°33' E 134°46'.

Length 96 m; draft 6 m.

Type: Cargo ship. MMSI: 431700423.

Date/timePositionNaut miles runAvg speedWind from/ knotsBaromVisibWave heightAir tempDewpointWater temp
2015-Jan-30 15:32N 34°33' E 134°46'1010.7
2015-Jan-30 14:33N 34°37' E 134°58'1010.0
2015-Jan-30 13:33N 34°36' E 135°10'1212.2
2015-Jan-30 12:33N 34°39' E 135°24'3 2.4
2015-Jan-30 11:25N 34°40' E 135°27'0 0.0
2015-Jan-30 10:30N 34°40' E 135°27'0 0.0
2015-Jan-30 09:24N 34°40' E 135°27'0 0.0
2015-Jan-30 08:30N 34°40' E 135°27'0 0.0
2015-Jan-30 07:30N 34°40' E 135°27'0 0.0
2015-Jan-30 06:30N 34°40' E 135°27'0 0.0
2015-Jan-30 05:24N 34°40' E 135°27'0 0.0
2015-Jan-30 04:24N 34°40' E 135°27'0 0.0
2015-Jan-30 03:30N 34°40' E 135°27'0 0.0
2015-Jan-30 02:32N 34°40' E 135°27'0 0.0
2015-Jan-30 01:29N 34°40' E 135°27'0 0.0
2015-Jan-30 00:29N 34°40' E 135°27'0 0.0
2015-Jan-29 23:29N 34°40' E 135°27'2 1.9
2015-Jan-29 22:33N 34°39' E 135°25'6 5.6
2015-Jan-29 21:32N 34°37' E 135°19'0 0.0
2015-Jan-29 20:32N 34°36' E 135°19'0 0.0
2015-Jan-29 19:32N 34°36' E 135°19'0 0.0
2015-Jan-29 18:32N 34°37' E 135°19'0 0.0
2015-Jan-29 17:32N 34°37' E 135°19'0 0.0
2015-Jan-29 16:32N 34°37' E 135°19'0 0.0
2015-Jan-29 15:26N 34°37' E 135°19'0 0.0
2015-Jan-29 14:32N 34°37' E 135°19'7 6.8
2015-Jan-29 13:33N 34°35' E 135°11'1312.9
2015-Jan-29 12:33N 34°37' E 134°56'  

Dump ship's entire track history